Data for 11/19/2013

Time Sea-Level Adjusted Pressure Absolute Pressure Temperature Relative Humidity Dew Point   
(mb) (inHg) (mb) (inHg) (C) (F) (%) (C) (F)
00:05 1011 29.85 840 24.81 4.3 39.8 41 -7.9 17.7
00:10 1011 29.85 840 24.81 4.1 39.4 40 -8.4 16.9
00:15 1011 29.85 840 24.81 4 39.2 44 -7.2 19
00:20 1011 29.85 840 24.81 3.6 38.5 43 -7.7 18.1
00:25 1011 29.85 840 24.81 3.8 38.9 42 -7.8 17.9
00:30 1011 29.85 840 24.81 4 39.2 42 -7.9 17.7
00:35 1011 29.85 840 24.81 4 39.2 41 -8 17.6
00:40 1011 29.85 840 24.81 4.5 40.1 37 -8.9 15.9
00:45 1011 29.85 840 24.81 4.8 40.7 40 -7.6 18.3
00:50 1011 29.85 840 24.81 4.3 39.7 40 -8.3 17.1
00:55 1011 29.85 840 24.81 4.7 40.4 39 -8.3 17.1
01:00 1011 29.85 840 24.81 4.7 40.5 37 -8.6 16.5
01:05 1010 29.83 840 24.81 4.9 40.9 38 -8.3 17.1
01:10 1010 29.83 840 24.81 4.8 40.7 38 -8.4 17
01:15 1010 29.83 840 24.81 5 41.1 36 -9 15.9
01:20 1010 29.83 840 24.81 5.5 42 34 -9 15.9
01:25 1010 29.83 840 24.81 6 42.7 33 -9.1 15.7
01:30 1010 29.83 839 24.78 6.2 43.2 35 -8.1 17.4
01:35 1010 29.83 839 24.78 5.7 42.3 36 -8.1 17.4
01:40 1010 29.83 839 24.78 5.5 41.9 35 -8.6 16.5
01:45 1010 29.83 839 24.78 5.5 41.9 35 -8.8 16.2
01:50 1010 29.83 839 24.78 5.5 41.8 36 -8.5 16.6
01:55 1010 29.83 839 24.78 5.4 41.7 36 -8.6 16.5
02:00 1010 29.83 839 24.78 5.4 41.7 36 -8.5 16.6
02:05 1010 29.83 839 24.78 5.4 41.8 36 -8.6 16.5
02:10 1010 29.83 839 24.78 5.4 41.7 36 -8.7 16.4
02:15 1010 29.83 839 24.78 5.5 42 36 -8.4 17
02:20 1010 29.83 839 24.78 5.7 42.2 35 -8.5 16.7
02:25 1010 29.83 839 24.78 5.2 41.4 38 -7.9 17.8
02:30 1009 29.8 839 24.78 5 40.9 38 -8.2 17.2
02:35 1009 29.8 838 24.75 5.4 41.7 36 -8.4 16.9
02:40 1009 29.8 838 24.75 5.3 41.5 37 -8.1 17.4
02:45 1009 29.8 838 24.75 5.6 42 37 -8 17.5
02:50 1009 29.8 838 24.75 5.5 42 37 -8 17.6
02:55 1009 29.8 838 24.75 5.4 41.7 38 -7.8 18
03:00 1009 29.8 838 24.75 5.3 41.5 38 -7.9 17.7
03:05 1009 29.8 838 24.75 5.3 41.5 38 -7.9 17.8
03:10 1009 29.8 838 24.75 5.4 41.7 38 -7.8 18
03:15 1009 29.8 838 24.75 5.3 41.6 39 -7.6 18.4
03:20 1009 29.8 838 24.75 5.2 41.4 40 -7.4 18.7
03:25 1009 29.8 838 24.75 5.2 41.3 39 -7.6 18.3
03:30 1009 29.8 838 24.75 5.8 42.5 37 -7.6 18.3
03:35 1009 29.8 838 24.75 6 42.8 38 -7.2 19
03:40 1009 29.8 838 24.75 5.6 42 40 -6.9 19.5
03:45 1009 29.8 838 24.75 5.7 42.3 38 -7.6 18.4
03:50 1009 29.8 838 24.75 6 42.8 38 -7.2 19
03:55 1009 29.8 838 24.75 6.2 43.2 37 -7.3 18.8
04:00 1009 29.8 838 24.75 6.4 43.5 37 -7.2 19.1
04:05 1009 29.8 838 24.75 6.3 43.3 38 -7 19.3
04:10 1009 29.8 838 24.75 6 42.8 39 -6.9 19.6
04:15 1009 29.8 838 24.75 5.7 42.3 40 -6.9 19.6
04:20 1009 29.8 838 24.75 5.6 42.1 40 -7 19.4
04:25 1009 29.8 838 24.75 5.7 42.2 41 -6.7 20
04:30 1009 29.8 838 24.75 5.9 42.7 38 -7.5 18.6
04:35 1009 29.8 838 24.75 6.7 44 35 -7.8 17.9
04:40 1009 29.8 838 24.75 7.3 45.1 36 -6.7 20
04:45 1009 29.8 838 24.75 6.8 44.3 35 -7.4 18.7
04:50 1009 29.8 838 24.75 7.4 45.3 33 -7.8 18
04:55 1009 29.8 838 24.75 7.8 46 34 -7 19.5
05:00 1009 29.8 838 24.75 7.3 45.2 36 -6.8 19.8
05:05 1009 29.8 838 24.75 6.6 44 39 -6.3 20.6
05:10 1009 29.8 838 24.75 6.3 43.4 38 -6.9 19.5
05:15 1009 29.8 838 24.75 6.7 44.1 36 -7.4 18.6
05:20 1009 29.8 838 24.75 7.2 45 33 -7.8 17.9
05:25 1009 29.8 838 24.75 7.9 46.3 32 -7.7 18.2
05:30 1009 29.8 838 24.75 8.4 47.2 32 -7.3 18.9
05:35 1009 29.8 838 24.75 8.3 47 33 -7.1 19.2
05:40 1009 29.8 838 24.75 8 46.4 37 -5.8 21.5
05:45 1009 29.8 838 24.75 6.9 44.5 39 -6.1 20.9
05:50 1008 29.77 838 24.75 7 44.6 36 -7.2 19
05:55 1008 29.77 838 24.75 6.8 44.2 43 -5 23
06:00 1009 29.8 838 24.75 5.8 42.5 40 -6.6 20.1
06:05 1009 29.8 838 24.75 6.3 43.3 38 -6.9 19.6
06:10 1009 29.8 838 24.75 6.7 44 38 -6.5 20.3
06:15 1009 29.8 838 24.75 6.5 43.8 38 -6.8 19.7
06:20 1008 29.77 838 24.75 6.9 44.4 36 -7.1 19.3
06:25 1008 29.77 838 24.75 7 44.7 39 -6.1 20.9
06:30 1008 29.77 838 24.75 6.5 43.8 39 -6.3 20.6
06:35 1008 29.77 838 24.75 6.3 43.3 43 -5.5 22.2
06:40 1008 29.77 838 24.75 5.4 41.7 45 -5.4 22.2
06:45 1008 29.77 838 24.75 5.4 41.7 42 -6.4 20.4
06:50 1008 29.77 838 24.75 5.8 42.5 42 -6.2 20.8
06:55 1009 29.8 838 24.75 5.8 42.5 41 -6.3 20.6
07:00 1008 29.77 838 24.75 5.8 42.5 44 -5.4 22.3
07:05 1008 29.77 838 24.75 5.9 42.5 40 -6.7 20
07:10 1009 29.8 838 24.75 6.4 43.5 39 -6.6 20.2
07:15 1009 29.8 838 24.75 6.6 43.8 38 -6.6 20
07:20 1009 29.8 838 24.75 7 44.6 39 -6.2 20.8
07:25 1009 29.8 838 24.75 7.1 44.8 39 -6 21.2
07:30 1009 29.8 838 24.75 7.1 44.7 39 -5.8 21.5
07:35 1009 29.8 838 24.75 7.1 44.8 41 -5.1 22.8
07:40 1009 29.8 838 24.75 7.2 45 41 -5.1 22.8
07:45 1009 29.8 838 24.75 7 44.6 42 -5 23.1
07:50 1009 29.8 838 24.75 6.9 44.4 44 -4.7 23.6
07:55 1008 29.77 838 24.75 7.3 45.1 43 -4.4 24
08:00 1008 29.77 838 24.75 7.4 45.3 42 -4.7 23.6
08:05 1008 29.77 838 24.75 7.6 45.6 41 -4.8 23.3
08:10 1008 29.77 838 24.75 7.7 45.8 42 -4.5 23.9
08:15 1009 29.8 838 24.75 7.7 45.8 41 -4.6 23.7
08:20 1009 29.8 838 24.75 7.7 45.8 42 -4.5 24
08:25 1009 29.8 838 24.75 7.6 45.6 42 -4.5 23.9
08:30 1009 29.8 838 24.75 7.5 45.6 41 -4.8 23.4
08:35 1009 29.8 838 24.75 7.7 45.9 41 -4.7 23.6
08:40 1009 29.8 838 24.75 7.7 45.8 40 -4.9 23.1
08:45 1009 29.8 838 24.75 8 46.3 39 -5 23
08:50 1009 29.8 838 24.75 7.9 46.2 40 -4.8 23.3
08:55 1009 29.8 838 24.75 7.9 46.2 39 -5.1 22.9
09:00 1009 29.8 838 24.75 8 46.4 39 -5.1 22.9
09:05 1009 29.8 838 24.75 8.2 46.7 37 -5.5 22
09:10 1009 29.8 838 24.75 8.4 47.2 37 -5.2 22.6
09:15 1009 29.8 838 24.75 8.2 46.8 37 -5.4 22.2
09:20 1009 29.8 838 24.75 8.2 46.7 37 -5.5 22.2
09:25 1009 29.8 838 24.75 8.3 46.9 37 -5.4 22.3
09:30 1009 29.8 838 24.75 8.3 46.9 38 -5.2 22.7
09:35 1009 29.8 838 24.75 8.2 46.8 39 -5.1 22.9
09:40 1009 29.8 838 24.75 8.1 46.6 39 -4.9 23.2
09:45 1009 29.8 838 24.75 8 46.3 41 -4.6 23.7
09:50 1009 29.8 838 24.75 7.8 46.1 41 -4.6 23.7
09:55 1008 29.77 838 24.75 7.8 46.1 41 -4.6 23.6
10:00 1008 29.77 838 24.75 7.8 46 41 -4.7 23.5
10:05 1008 29.77 838 24.75 8.1 46.5 39 -5.1 22.8
10:10 1009 29.8 838 24.75 8.5 47.2 37 -5.3 22.5
10:15 1009 29.8 838 24.75 8.7 47.7 36 -5.5 22.1
10:20 1009 29.8 838 24.75 8.7 47.7 36 -5.5 22.1
10:25 1009 29.8 838 24.75 8.9 47.9 37 -5.2 22.6
10:30 1009 29.8 838 24.75 8.9 48 36 -5.4 22.3
10:35 1009 29.8 838 24.75 9.1 48.4 35 -5.4 22.3
10:40 1009 29.8 838 24.75 9.5 49 33 -6.1 21
10:45 1009 29.8 838 24.75 9.8 49.7 33 -5.6 21.9
10:50 1009 29.8 838 24.75 9.9 49.9 33 -5.7 21.7
10:55 1009 29.8 838 24.75 10.3 50.5 32 -5.8 21.6
11:00 1009 29.8 838 24.75 10.5 50.8 31 -5.9 21.3
11:05 1009 29.8 838 24.75 10.8 51.4 30 -6.1 20.9
11:10 1009 29.8 838 24.75 10.7 51.3 31 -5.7 21.8
11:15 1009 29.8 838 24.75 10.7 51.2 30 -6 21.2
11:20 1009 29.8 838 24.75 10.3 50.5 32 -5.7 21.7
11:25 1009 29.8 838 24.75 10.1 50.3 32 -5.8 21.5
11:30 1008 29.77 838 24.75 10.1 50.1 32 -5.9 21.5
11:35 1008 29.77 838 24.75 9.9 49.9 32 -5.8 21.6
11:40 1008 29.77 838 24.75 9.9 49.7 33 -5.8 21.6
11:45 1008 29.77 837 24.72 9.9 49.7 33 -5.8 21.5
11:50 1008 29.77 837 24.72 9.9 49.9 32 -5.9 21.3
11:55 1008 29.77 837 24.72 10 50.1 32 -5.8 21.5
12:00 1008 29.77 837 24.72 10.2 50.4 32 -5.7 21.8
12:05 1008 29.77 837 24.72 10.2 50.4 32 -5.8 21.5
12:10 1008 29.77 837 24.72 10.6 51.1 31 -5.9 21.4
12:15 1008 29.77 837 24.72 11.1 51.9 30 -5.9 21.3
12:20 1008 29.77 837 24.72 11.5 52.7 29 -5.8 21.6
12:25 1008 29.77 837 24.72 11.6 52.8 29 -5.7 21.7
12:30 1008 29.77 837 24.72 11.6 53 30 -5.5 22.1
12:35 1008 29.77 837 24.72 11.9 53.4 29 -5.6 22
12:40 1008 29.77 837 24.72 11.7 53 30 -5.2 22.7
12:45 1008 29.77 837 24.72 11.5 52.7 30 -5.4 22.2
12:50 1008 29.77 837 24.72 11.7 53 30 -5.4 22.2
12:55 1008 29.77 837 24.72 11.5 52.7 30 -5.3 22.5
13:00 1008 29.77 837 24.72 10.9 51.6 31 -5.3 22.4
13:05 1008 29.77 837 24.72 10.8 51.4 31 -5.5 22
13:10 1008 29.77 837 24.72 10.8 51.5 31 -5.4 22.2
13:15 1007 29.74 837 24.72 10.7 51.3 32 -5.3 22.4
13:20 1007 29.74 837 24.72 10.7 51.2 32 -5.4 22.4
13:25 1007 29.74 837 24.72 10.5 50.9 32 -5.3 22.4
13:30 1007 29.74 837 24.72 10.5 50.8 32 -5.3 22.4
13:35 1007 29.74 837 24.72 10.4 50.8 32 -5.3 22.4
13:40 1007 29.74 837 24.72 10.6 51.1 32 -5.2 22.6
13:45 1007 29.74 837 24.72 10.7 51.2 32 -5.3 22.4
13:50 1007 29.74 837 24.72 10.6 51 32 -5.3 22.5
13:55 1007 29.74 837 24.72 10.6 51.1 32 -5.2 22.6
14:00 1007 29.74 837 24.72 10.6 51.1 32 -5.2 22.6
14:05 1007 29.74 837 24.72 10.6 51.1 32 -5.3 22.4
14:10 1007 29.74 836 24.69 10.7 51.2 32 -5.3 22.5
14:15 1007 29.74 836 24.69 10.7 51.2 32 -5.1 22.7
14:20 1007 29.74 836 24.69 10.6 51.2 32 -5.2 22.6
14:25 1007 29.74 836 24.69 10.7 51.2 32 -5.4 22.3
14:30 1007 29.74 836 24.69 10.8 51.4 31 -5.8 21.6
14:35 1007 29.74 836 24.69 10.8 51.4 32 -5.3 22.4
14:40 1007 29.74 836 24.69 10.8 51.5 31 -5.5 22.1
14:45 1007 29.74 836 24.69 10.9 51.6 31 -5.7 21.8
14:50 1007 29.74 836 24.69 10.7 51.3 31 -5.6 22
14:55 1007 29.74 836 24.69 10.5 50.8 32 -5.6 21.8
15:00 1007 29.74 836 24.69 10.5 50.9 31 -5.8 21.6
15:05 1007 29.74 836 24.69 10.9 51.5 31 -5.8 21.6
15:10 1007 29.74 836 24.69 10.9 51.5 30 -5.9 21.4
15:15 1007 29.74 836 24.69 11.1 52 29 -6.1 21.1
15:20 1007 29.74 836 24.69 11.6 52.8 29 -5.9 21.3
15:25 1007 29.74 836 24.69 11.7 53 28 -6 21.2
15:30 1007 29.74 836 24.69 11.6 52.9 28 -6.2 20.8
15:35 1007 29.74 836 24.69 12.1 53.7 28 -6.1 21.1
15:40 1007 29.74 836 24.69 12 53.6 27 -6.3 20.7
15:45 1007 29.74 836 24.69 12 53.6 28 -6.1 21
15:50 1007 29.74 836 24.69 11.9 53.5 28 -5.9 21.3
15:55 1007 29.74 836 24.69 12.1 53.9 28 -5.9 21.3
16:00 1007 29.74 836 24.69 12.1 53.9 28 -5.7 21.8
16:05 1007 29.74 836 24.69 12 53.7 28 -5.7 21.8
16:10 1007 29.74 836 24.69 11.9 53.5 28 -5.9 21.4
16:15 1007 29.74 836 24.69 11.8 53.2 28 -5.9 21.4
16:20 1007 29.74 836 24.69 11.7 53.1 29 -5.9 21.4
16:25 1007 29.74 836 24.69 11.6 53 29 -5.6 21.9
16:30 1007 29.74 836 24.69 11.5 52.7 29 -5.9 21.3
16:35 1007 29.74 836 24.69 11.3 52.3 29 -5.8 21.5
16:40 1007 29.74 836 24.69 11.3 52.3 29 -6 21.3
16:45 1007 29.74 836 24.69 11.5 52.6 30 -5.7 21.8
16:50 1007 29.74 836 24.69 11.3 52.4 30 -5.8 21.6
16:55 1007 29.74 836 24.69 11.3 52.4 30 -5.6 22
17:00 1007 29.74 836 24.69 11.2 52.1 30 -5.6 21.9
17:05 1007 29.74 836 24.69 10.9 51.6 31 -5.6 22
17:10 1007 29.74 836 24.69 11 51.7 31 -5.6 21.9
17:15 1007 29.74 836 24.69 10.9 51.7 31 -5.6 22
17:20 1007 29.74 836 24.69 10.8 51.4 31 -5.6 21.9
17:25 1007 29.74 836 24.69 10.7 51.2 31 -5.8 21.5
17:30 1007 29.74 836 24.69 10.4 50.8 32 -5.5 22.1
17:35 1007 29.74 836 24.69 9.9 49.9 33 -5.5 22
17:40 1007 29.74 836 24.69 9.6 49.2 34 -5.7 21.8
17:45 1007 29.74 836 24.69 9.3 48.8 34 -5.7 21.8
17:50 1007 29.74 836 24.69 9.2 48.5 34 -5.7 21.8
17:55 1007 29.74 836 24.69 9.1 48.4 35 -5.7 21.8
18:00 1007 29.74 836 24.69 9.1 48.3 35 -5.8 21.6
18:05 1007 29.74 836 24.69 9 48.2 35 -5.6 21.9
18:10 1007 29.74 836 24.69 8.9 47.9 36 -5.5 22
18:15 1007 29.74 837 24.72 8.7 47.7 36 -5.4 22.2
18:20 1007 29.74 837 24.72 8.5 47.3 37 -5.5 22.1
18:25 1008 29.77 837 24.72 8.5 47.3 36 -5.6 22
18:30 1008 29.77 837 24.72 8.6 47.5 37 -5.4 22.3
18:35 1008 29.77 837 24.72 8.5 47.3 37 -5.4 22.3
18:40 1007 29.74 837 24.72 8.4 47.2 37 -5.6 22
18:45 1007 29.74 837 24.72 8.5 47.4 36 -5.6 21.9
18:50 1007 29.74 837 24.72 8.7 47.6 36 -5.5 22.1
18:55 1007 29.74 837 24.72 8.6 47.4 36 -5.6 21.8
19:00 1007 29.74 836 24.69 8.6 47.5 36 -5.5 22.1
19:05 1007 29.74 837 24.72 8.6 47.4 36 -5.5 22.1
19:10 1007 29.74 837 24.72 8.4 47.2 36 -5.7 21.7
19:15 1007 29.74 837 24.72 8.3 46.9 36 -5.7 21.7
19:20 1007 29.74 837 24.72 8.1 46.6 37 -5.7 21.7
19:25 1007 29.74 837 24.72 8 46.5 37 -5.8 21.6
19:30 1007 29.74 836 24.69 7.9 46.1 37 -5.8 21.6
19:35 1007 29.74 836 24.69 7.8 46 38 -5.8 21.6
19:40 1007 29.74 836 24.69 7.7 45.9 38 -5.6 21.8
19:45 1007 29.74 836 24.69 7.4 45.3 40 -5.4 22.3
19:50 1007 29.74 836 24.69 7.1 44.8 41 -5.4 22.3
19:55 1007 29.74 836 24.69 7 44.6 41 -5.4 22.2
20:00 1007 29.74 836 24.69 7.1 44.9 40 -5.5 22.1
20:05 1007 29.74 836 24.69 7.1 44.8 41 -5.3 22.4
20:10 1007 29.74 836 24.69 6.8 44.2 42 -5.1 22.7
20:15 1007 29.74 836 24.69 6.4 43.5 43 -5.3 22.4
20:20 1007 29.74 836 24.69 6.5 43.7 42 -5.5 22.1
20:25 1007 29.74 836 24.69 6.7 44 41 -5.5 22.1
20:30 1007 29.74 836 24.69 6.9 44.4 41 -5.5 22
20:35 1007 29.74 836 24.69 7.2 45 40 -5.6 21.8
20:40 1007 29.74 836 24.69 7.5 45.5 39 -5.5 22.2
20:45 1007 29.74 836 24.69 7.5 45.5 40 -5.4 22.3
20:50 1007 29.74 836 24.69 7.4 45.3 40 -5.3 22.4
20:55 1007 29.74 836 24.69 7.2 44.9 41 -5.2 22.6
21:00 1007 29.74 836 24.69 7 44.6 42 -5.1 22.8
21:05 1007 29.74 836 24.69 6.6 43.9 43 -5.1 22.9
21:10 1007 29.74 837 24.72 6.6 43.9 43 -5.1 22.8
21:15 1007 29.74 837 24.72 6.7 44.1 43 -5 23
21:20 1007 29.74 837 24.72 6.7 44.1 43 -5 23
21:25 1007 29.74 837 24.72 6.8 44.2 43 -5 23.1
21:30 1007 29.74 837 24.72 6.9 44.5 43 -4.7 23.5
21:35 1007 29.74 837 24.72 6.8 44.2 43 -4.8 23.4
21:40 1007 29.74 837 24.72 6.9 44.4 43 -4.7 23.6
21:45 1007 29.74 837 24.72 7 44.5 42 -4.9 23.2
21:50 1007 29.74 837 24.72 7.3 45.2 42 -4.7 23.5
21:55 1007 29.74 837 24.72 7.5 45.6 41 -4.9 23.2
22:00 1007 29.74 837 24.72 7.7 45.8 40 -5.1 22.7
22:05 1007 29.74 837 24.72 8 46.3 39 -5.2 22.6
22:10 1007 29.74 837 24.72 8.1 46.6 38 -5.2 22.6
22:15 1007 29.74 837 24.72 8.1 46.6 39 -5.1 22.8
22:20 1007 29.74 837 24.72 8.2 46.7 38 -5.3 22.5
22:25 1007 29.74 837 24.72 8.2 46.8 38 -5.1 22.9
22:30 1007 29.74 837 24.72 8.2 46.7 39 -4.9 23.2
22:35 1007 29.74 837 24.72 8.1 46.6 38 -5.2 22.7
22:40 1007 29.74 837 24.72 8.4 47.2 37 -5.4 22.3
22:45 1007 29.74 836 24.69 8.7 47.6 37 -5.4 22.3
22:50 1007 29.74 836 24.69 8.9 48.1 36 -5.5 22.2
22:55 1007 29.74 836 24.69 9.1 48.4 35 -5.4 22.2
23:00 1007 29.74 836 24.69 8.9 48.1 37 -5.1 22.9
23:05 1007 29.74 836 24.69 8.6 47.6 37 -5.2 22.6
23:10 1007 29.74 836 24.69 8.7 47.6 37 -5.3 22.4
23:15 1007 29.74 836 24.69 8.8 47.8 37 -5.2 22.6
23:20 1007 29.74 836 24.69 8.7 47.6 37 -5.2 22.7
23:25 1007 29.74 836 24.69 8.6 47.5 37 -5.2 22.7
23:30 1007 29.74 837 24.72 8.6 47.4 37 -5.2 22.6
23:35 1007 29.74 837 24.72 8.5 47.4 37 -5.3 22.5
23:40 1007 29.74 837 24.72 8.5 47.3 37 -5.2 22.6
23:45 1008 29.77 837 24.72 8.5 47.2 37 -5.2 22.6
23:50 1008 29.77 837 24.72 8.5 47.4 37 -5.3 22.4
23:55 1008 29.77 837 24.72 8.7 47.6 37 -5.2 22.7
24:00 1008 29.77 837 24.72 8.8 47.8 37 -5.1 22.8